createdAt,value
2023-04-03T00:02:46.811Z,8.51
2023-04-03T00:05:49.253Z,8.58
2023-04-03T00:08:52.966Z,8.50
2023-04-03T00:11:55.538Z,8.48
2023-04-03T00:14:57.936Z,8.44
2023-04-03T00:18:00.439Z,8.44
2023-04-03T00:21:02.962Z,8.37
2023-04-03T00:24:05.697Z,8.34
2023-04-03T00:27:08.282Z,8.33
2023-04-03T00:30:12.255Z,8.37
2023-04-03T00:33:14.902Z,8.42
2023-04-03T00:36:17.486Z,8.33
2023-04-03T00:39:19.975Z,8.27
2023-04-03T00:42:22.594Z,8.13
2023-04-03T00:45:29.582Z,8.07
2023-04-03T00:48:34.484Z,8.00
2023-04-03T00:51:36.905Z,8.01
2023-04-03T00:54:39.343Z,7.96
2023-04-03T00:57:42.449Z,7.96
2023-04-03T01:00:46.979Z,8.01
2023-04-03T01:03:49.445Z,8.05
2023-04-03T01:06:51.875Z,8.13
2023-04-03T01:09:57.945Z,8.12
2023-04-03T01:13:00.480Z,8.13
2023-04-03T01:16:04.561Z,8.06
2023-04-03T01:19:08.886Z,7.97
2023-04-03T01:22:22.437Z,8.01
2023-04-03T01:25:24.983Z,7.97
2023-04-03T01:28:33.210Z,7.99
2023-04-03T01:31:35.927Z,7.91
2023-04-03T01:34:38.634Z,7.99
2023-04-03T01:37:41.250Z,7.98
2023-04-03T01:40:43.722Z,7.98
2023-04-03T01:43:46.651Z,7.98
2023-04-03T01:46:49.275Z,7.99
2023-04-03T01:49:51.752Z,7.96
2023-04-03T01:52:54.199Z,7.88
2023-04-03T01:55:56.617Z,7.89
2023-04-03T01:58:59.987Z,7.83
2023-04-03T02:02:02.477Z,7.86
2023-04-03T02:05:05.345Z,7.81
2023-04-03T02:08:08.144Z,7.81
2023-04-03T02:11:11.166Z,7.81
2023-04-03T02:14:13.614Z,7.85
2023-04-03T02:17:16.290Z,7.90
2023-04-03T02:20:19.033Z,7.95
2023-04-03T02:23:21.451Z,7.86
2023-04-03T02:26:23.904Z,7.73
2023-04-03T02:29:26.391Z,7.75
2023-04-03T02:32:29.768Z,7.64
2023-04-03T02:35:32.594Z,7.68
2023-04-03T02:38:36.339Z,7.50
2023-04-03T02:41:38.982Z,7.54
2023-04-03T02:44:47.678Z,7.48
2023-04-03T02:47:50.731Z,7.48
2023-04-03T02:50:53.337Z,7.52
2023-04-03T02:53:55.899Z,7.47
2023-04-03T02:57:02.493Z,7.45
2023-04-03T03:00:06.299Z,7.38
2023-04-03T03:03:08.972Z,7.37
2023-04-03T03:06:13.131Z,7.30
2023-04-03T03:09:16.073Z,7.34
2023-04-03T03:12:22.814Z,7.28
2023-04-03T03:15:25.986Z,7.24
2023-04-03T03:18:28.490Z,7.10
2023-04-03T03:21:31.144Z,7.12
2023-04-03T03:24:33.596Z,7.03
2023-04-03T03:27:36.303Z,7.06
2023-04-03T03:30:39.001Z,7.06
2023-04-03T03:33:41.896Z,7.16
2023-04-03T03:36:44.525Z,7.09
2023-04-03T03:39:47.034Z,6.96
2023-04-03T03:42:49.759Z,6.92
2023-04-03T03:45:53.659Z,6.87
2023-04-03T03:48:58.195Z,6.79
2023-04-03T03:52:00.881Z,6.80
2023-04-03T03:55:03.753Z,6.77
2023-04-03T03:58:06.713Z,6.71
2023-04-03T04:01:10.374Z,6.68
2023-04-03T04:04:19.115Z,6.66
2023-04-03T04:07:22.206Z,6.66
2023-04-03T04:10:25.137Z,6.50
2023-04-03T04:13:28.113Z,6.55
2023-04-03T04:16:30.900Z,6.31
2023-04-03T04:19:38.279Z,6.29
2023-04-03T04:22:40.815Z,6.05
2023-04-03T04:25:48.565Z,6.23
2023-04-03T04:28:51.356Z,6.20
2023-04-03T04:31:55.715Z,6.19
2023-04-03T04:34:59.419Z,6.24
2023-04-03T04:38:03.702Z,6.22
2023-04-03T04:41:06.282Z,6.23
2023-04-03T04:44:09.390Z,6.25
2023-04-03T04:47:12.419Z,6.19
2023-04-03T04:50:16.009Z,6.09
2023-04-03T04:53:18.871Z,6.14
2023-04-03T04:56:21.957Z,6.19
2023-04-03T04:59:24.702Z,6.11
2023-04-03T05:02:29.534Z,6.09
2023-04-03T05:05:32.192Z,6.12
2023-04-03T05:08:34.764Z,6.27
2023-04-03T05:11:37.606Z,6.32
2023-04-03T05:14:42.402Z,6.42
2023-04-03T05:17:47.374Z,6.58
2023-04-03T05:20:51.720Z,6.65
2023-04-03T05:23:55.855Z,6.74
2023-04-03T05:26:59.281Z,6.80
2023-04-03T05:30:02.925Z,6.79
2023-04-03T05:33:07.621Z,6.87
2023-04-03T05:36:22.581Z,6.70
2023-04-03T05:39:31.810Z,6.70
2023-04-03T05:42:35.827Z,6.67
2023-04-03T05:45:38.486Z,6.70
2023-04-03T05:48:41.140Z,6.71
2023-04-03T05:51:46.446Z,6.70
2023-04-03T05:54:54.367Z,6.63
2023-04-03T05:58:01.526Z,6.74
2023-04-03T06:01:04.396Z,6.92
2023-04-03T06:04:10.225Z,7.05
2023-04-03T06:07:22.185Z,7.08
2023-04-03T06:10:25.650Z,7.17
2023-04-03T06:13:28.602Z,7.15
2023-04-03T06:16:32.105Z,7.50
2023-04-03T06:19:35.659Z,7.73
2023-04-03T06:22:38.312Z,7.71
2023-04-03T06:28:43.493Z,7.89
2023-04-03T06:31:46.196Z,7.99
2023-04-03T06:34:49.580Z,7.97
2023-04-03T06:37:52.554Z,8.10
2023-04-03T06:40:55.327Z,8.11
2023-04-03T06:43:59.183Z,8.11
2023-04-03T06:47:02.146Z,8.15
2023-04-03T06:50:05.404Z,8.19
2023-04-03T06:53:08.346Z,8.33
2023-04-03T06:56:11.018Z,8.30
2023-04-03T06:59:14.719Z,8.37
2023-04-03T07:02:17.474Z,8.46
2023-04-03T07:05:20.672Z,8.52
2023-04-03T07:08:24.809Z,8.60
2023-04-03T07:11:28.324Z,8.78
2023-04-03T07:14:31.104Z,9.06
2023-04-03T07:17:34.409Z,9.12
2023-04-03T07:20:37.460Z,9.08
2023-04-03T07:23:40.437Z,9.23
2023-04-03T07:26:43.268Z,9.25
2023-04-03T07:29:45.956Z,9.36
2023-04-03T07:32:48.650Z,9.45
2023-04-03T07:35:51.216Z,9.52
2023-04-03T07:38:53.686Z,9.77
2023-04-03T07:41:59.102Z,9.72
2023-04-03T07:45:03.273Z,9.92
2023-04-03T07:48:06.164Z,10.23
2023-04-03T07:51:08.867Z,10.34
2023-04-03T07:54:11.779Z,10.28
2023-04-03T07:57:14.480Z,10.43
2023-04-03T08:00:18.565Z,10.53
2023-04-03T08:03:21.363Z,10.33
2023-04-03T08:06:37.471Z,10.33
2023-04-03T08:09:40.946Z,10.52
2023-04-03T08:12:43.575Z,10.68
2023-04-03T08:15:46.369Z,10.78
2023-04-03T08:18:49.448Z,10.85
2023-04-03T08:21:52.211Z,10.96
2023-04-03T08:24:59.381Z,11.05
2023-04-03T08:28:03.221Z,11.04
2023-04-03T08:31:12.384Z,11.15
2023-04-03T08:34:15.819Z,11.29
2023-04-03T08:37:20.586Z,11.39
2023-04-03T08:40:23.501Z,11.29
2023-04-03T08:43:32.624Z,11.41
2023-04-03T08:46:47.206Z,11.19
2023-04-03T08:50:04.323Z,11.23
2023-04-03T08:53:07.795Z,11.28
2023-04-03T08:56:11.049Z,11.31
2023-04-03T08:59:15.242Z,11.50
2023-04-03T09:02:48.365Z,11.72
2023-04-03T09:05:57.293Z,11.85
2023-04-03T09:09:12.413Z,11.86
2023-04-03T09:12:36.256Z,11.93
2023-04-03T09:15:39.833Z,12.48
2023-04-03T09:18:44.466Z,12.53
2023-04-03T09:21:47.634Z,13.07
2023-04-03T09:25:01.506Z,13.31
2023-04-03T09:28:04.993Z,12.86
2023-04-03T09:31:20.300Z,13.20
2023-04-03T09:34:34.441Z,13.13
2023-04-03T09:37:42.920Z,13.07
2023-04-03T09:40:47.474Z,12.80
2023-04-03T09:43:54.784Z,12.64
2023-04-03T09:46:57.449Z,13.52
2023-04-03T09:50:15.353Z,13.50
2023-04-03T09:53:42.015Z,13.42
2023-04-03T09:56:44.611Z,13.31
2023-04-03T10:00:01.289Z,13.75
2023-04-03T10:03:05.422Z,14.07
2023-04-03T10:06:24.427Z,14.12
2023-04-03T10:09:28.625Z,14.63
2023-04-03T10:12:31.714Z,14.83
2023-04-03T10:16:03.168Z,14.56
2023-04-03T10:19:19.829Z,14.40
2023-04-03T10:22:38.435Z,14.05
2023-04-03T10:25:59.769Z,13.90
2023-04-03T10:29:29.841Z,13.34
2023-04-03T10:32:46.375Z,12.65
2023-04-03T10:36:12.852Z,12.41
2023-04-03T10:39:50.052Z,12.22
2023-04-03T10:43:05.542Z,12.11
2023-04-03T10:46:39.099Z,12.08
2023-04-03T10:49:50.066Z,11.89
2023-04-03T10:53:05.846Z,11.87
2023-04-03T10:56:08.177Z,11.84
2023-04-03T10:59:29.245Z,11.91
2023-04-03T11:02:39.938Z,11.97
2023-04-03T11:05:45.253Z,12.09
2023-04-03T11:09:23.657Z,12.28
2023-04-03T11:12:29.980Z,12.31
2023-04-03T11:15:32.614Z,12.22
2023-04-03T11:18:46.351Z,12.21
2023-04-03T11:22:04.774Z,12.22
2023-04-03T11:25:11.422Z,12.31
2023-04-03T11:28:15.097Z,12.28
2023-04-03T11:31:33.654Z,12.37
2023-04-03T11:34:41.297Z,12.56
2023-04-03T11:37:48.577Z,12.74
2023-04-03T11:40:51.400Z,12.92
2023-04-03T11:44:06.751Z,13.15
2023-04-03T11:47:13.380Z,13.40
2023-04-03T11:50:46.819Z,13.46
2023-04-03T11:53:49.610Z,13.52
2023-04-03T11:56:52.169Z,13.27
2023-04-03T11:59:54.686Z,13.18
2023-04-03T12:02:57.414Z,12.87
2023-04-03T12:06:12.754Z,12.66
2023-04-03T12:09:28.882Z,12.45
2023-04-03T12:12:39.984Z,12.30
2023-04-03T12:15:45.675Z,12.41
2023-04-03T12:18:54.083Z,12.35
2023-04-03T12:21:59.237Z,12.33
2023-04-03T12:25:02.938Z,12.40
2023-04-03T12:28:06.893Z,12.33
2023-04-03T12:31:12.343Z,12.40
2023-04-03T12:34:47.116Z,12.51
2023-04-03T12:38:34.539Z,12.35
2023-04-03T12:41:49.732Z,12.24
2023-04-03T12:45:14.331Z,12.39
2023-04-03T12:48:24.239Z,12.37
2023-04-03T12:51:44.688Z,12.67
2023-04-03T12:54:47.585Z,12.71
2023-04-03T12:57:50.146Z,12.78
2023-04-03T13:01:03.644Z,12.76
2023-04-03T13:04:06.376Z,12.62
2023-04-03T13:07:22.597Z,12.74
2023-04-03T13:10:25.385Z,12.60
2023-04-03T13:13:27.942Z,12.60
2023-04-03T13:16:30.688Z,12.70
2023-04-03T13:19:33.223Z,12.67
2023-04-03T13:22:46.982Z,12.88
2023-04-03T13:25:49.936Z,13.02
2023-04-03T13:28:53.807Z,12.90
2023-04-03T13:31:57.254Z,13.08
2023-04-03T13:35:08.167Z,13.16
2023-04-03T13:38:18.289Z,13.23
2023-04-03T13:41:32.701Z,13.19
2023-04-03T13:44:36.817Z,13.29
2023-04-03T13:47:40.922Z,13.39
2023-04-03T13:51:10.022Z,13.80
2023-04-03T13:54:24.800Z,14.44
2023-04-03T13:57:27.501Z,14.87
2023-04-03T14:01:11.827Z,15.21
2023-04-03T14:04:21.453Z,16.19
2023-04-03T14:07:51.531Z,16.37
2023-04-03T14:11:00.286Z,15.81
2023-04-03T14:14:20.570Z,15.61
2023-04-03T14:17:25.695Z,15.18
2023-04-03T14:20:28.537Z,14.50
2023-04-03T14:23:32.031Z,14.39
2023-04-03T14:26:35.672Z,14.35
2023-04-03T14:30:17.047Z,13.96
2023-04-03T14:33:22.886Z,13.89
2023-04-03T14:36:32.775Z,13.79
2023-04-03T14:39:35.702Z,13.70
2023-04-03T14:42:39.266Z,13.40
2023-04-03T14:45:41.903Z,13.26
2023-04-03T14:48:44.558Z,13.12
2023-04-03T14:51:47.089Z,12.98
2023-04-03T14:54:50.163Z,12.86
2023-04-03T14:57:53.413Z,12.64
2023-04-03T15:00:55.771Z,12.55
2023-04-03T15:03:58.493Z,12.25
2023-04-03T15:07:01.523Z,12.30
2023-04-03T15:10:18.099Z,12.16
2023-04-03T15:13:21.989Z,12.24
2023-04-03T15:16:24.656Z,12.09
2023-04-03T15:19:28.540Z,12.07
2023-04-03T15:22:31.384Z,11.95
2023-04-03T15:25:34.224Z,11.75
2023-04-03T15:28:39.012Z,11.79
2023-04-03T15:31:41.549Z,11.81
2023-04-03T15:34:46.813Z,11.66
2023-04-03T15:37:49.405Z,11.66
2023-04-03T15:40:53.141Z,11.70
2023-04-03T15:43:55.587Z,11.52
2023-04-03T15:46:59.102Z,11.55
2023-04-03T15:50:07.247Z,11.45
2023-04-03T15:53:31.275Z,11.51
2023-04-03T15:56:50.596Z,11.51
2023-04-03T16:00:03.690Z,11.52
2023-04-03T16:03:13.797Z,11.46
2023-04-03T16:06:17.191Z,11.29
2023-04-03T16:09:20.308Z,11.28
2023-04-03T16:12:23.181Z,11.10
2023-04-03T16:15:25.790Z,10.96
2023-04-03T16:18:28.819Z,10.82
2023-04-03T16:21:31.414Z,10.61
2023-04-03T16:24:33.925Z,10.49
2023-04-03T16:27:36.788Z,10.36
2023-04-03T16:30:40.367Z,10.12
2023-04-03T16:33:42.952Z,9.91
2023-04-03T16:36:45.494Z,10.07
2023-04-03T16:39:47.981Z,9.99
2023-04-03T16:42:50.459Z,9.86
2023-04-03T16:45:52.881Z,9.92
2023-04-03T16:48:55.444Z,9.86
2023-04-03T16:51:57.889Z,9.80
2023-04-03T16:55:00.622Z,9.73
2023-04-03T16:58:03.100Z,9.64
2023-04-03T17:01:18.824Z,9.65
2023-04-03T17:04:22.191Z,9.61
2023-04-03T17:07:25.429Z,9.57
2023-04-03T17:10:27.977Z,9.57
2023-04-03T17:13:33.255Z,9.46
2023-04-03T17:16:37.439Z,9.43
2023-04-03T17:19:40.033Z,9.26
2023-04-03T17:22:42.618Z,9.13
2023-04-03T17:25:45.417Z,9.15
2023-04-03T17:28:47.830Z,9.11
2023-04-03T17:31:50.381Z,9.03
2023-04-03T17:34:52.926Z,8.98
2023-04-03T17:37:55.790Z,9.01
2023-04-03T17:41:00.120Z,8.92
2023-04-03T17:44:03.695Z,8.86
2023-04-03T17:47:08.220Z,8.83
2023-04-03T17:50:11.444Z,8.74
2023-04-03T17:53:15.365Z,8.72
2023-04-03T17:56:23.386Z,8.72
2023-04-03T17:59:26.965Z,8.69
2023-04-03T18:02:30.318Z,8.60
2023-04-03T18:05:33.054Z,8.54
2023-04-03T18:08:37.828Z,8.44
2023-04-03T18:11:40.370Z,8.49
2023-04-03T18:14:42.921Z,8.39
2023-04-03T18:17:46.600Z,8.37
2023-04-03T18:20:49.521Z,8.39
2023-04-03T18:23:53.675Z,8.39
2023-04-03T18:26:59.081Z,8.35
2023-04-03T18:30:03.077Z,8.39
2023-04-03T18:33:06.097Z,8.32
2023-04-03T18:36:09.073Z,8.21
2023-04-03T18:39:12.264Z,8.25
2023-04-03T18:42:17.296Z,7.99
2023-04-03T18:45:21.887Z,8.00
2023-04-03T18:48:24.886Z,8.10
2023-04-03T18:51:27.925Z,8.08
2023-04-03T18:54:30.493Z,8.14
2023-04-03T18:57:33.174Z,8.06
2023-04-03T19:00:35.645Z,7.95
2023-04-03T19:03:38.191Z,8.04
2023-04-03T19:06:40.815Z,7.84
2023-04-03T19:09:43.753Z,7.81
2023-04-03T19:12:46.841Z,7.70
2023-04-03T19:15:49.399Z,7.73
2023-04-03T19:18:52.144Z,7.55
2023-04-03T19:21:54.722Z,7.45
2023-04-03T19:24:57.137Z,7.31
2023-04-03T19:28:00.885Z,7.35
2023-04-03T19:31:03.881Z,7.23
2023-04-03T19:34:06.868Z,7.08
2023-04-03T19:37:10.359Z,7.05
2023-04-03T19:40:13.720Z,6.93
2023-04-03T19:43:16.760Z,6.99
2023-04-03T19:46:19.473Z,6.93
2023-04-03T19:49:22.121Z,6.76
2023-04-03T19:52:24.654Z,6.87
2023-04-03T19:55:31.257Z,6.66
2023-04-03T19:58:33.954Z,6.70
2023-04-03T20:01:36.556Z,6.66
2023-04-03T20:04:39.693Z,6.67
2023-04-03T20:07:42.229Z,6.51
2023-04-03T20:10:44.929Z,6.44
2023-04-03T20:13:51.673Z,6.45
2023-04-03T20:16:54.299Z,6.38
2023-04-03T20:20:01.509Z,6.16
2023-04-03T20:23:04.429Z,5.96
2023-04-03T20:26:10.986Z,5.85
2023-04-03T20:29:19.429Z,5.69
2023-04-03T20:32:22.056Z,5.53
2023-04-03T20:35:25.106Z,5.47
2023-04-03T20:38:27.789Z,5.37
2023-04-03T20:41:31.914Z,5.47
2023-04-03T20:44:34.678Z,5.44
2023-04-03T20:47:37.334Z,5.38
2023-04-03T20:50:41.474Z,5.59
2023-04-03T20:53:45.130Z,5.51
2023-04-03T20:56:50.120Z,5.48
2023-04-03T20:59:53.296Z,5.36
2023-04-03T21:02:57.352Z,5.16
2023-04-03T21:06:03.988Z,5.29
2023-04-03T21:09:45.080Z,5.27
2023-04-03T21:13:25.530Z,5.19
2023-04-03T21:16:28.111Z,5.20
2023-04-03T21:19:30.982Z,5.28
2023-04-03T21:22:33.363Z,5.35
2023-04-03T21:25:35.869Z,5.26
2023-04-03T21:28:38.293Z,5.31
2023-04-03T21:31:54.132Z,5.29
2023-04-03T21:34:56.684Z,5.22
2023-04-03T21:37:59.677Z,5.24
2023-04-03T21:41:02.621Z,5.28
2023-04-03T21:44:05.322Z,5.26
2023-04-03T21:47:08.006Z,5.23
2023-04-03T21:50:10.743Z,5.28
2023-04-03T21:53:13.381Z,5.17
2023-04-03T21:56:16.105Z,5.24
2023-04-03T21:59:18.805Z,5.24
2023-04-03T22:02:21.383Z,5.18
2023-04-03T22:05:23.877Z,5.07
2023-04-03T22:08:26.552Z,5.05
2023-04-03T22:11:29.338Z,5.08
2023-04-03T22:14:31.918Z,4.95
2023-04-03T22:17:34.954Z,4.81
2023-04-03T22:20:37.629Z,4.91
2023-04-03T22:23:40.112Z,4.82
2023-04-03T22:26:44.733Z,4.92
2023-04-03T22:29:47.127Z,4.75
2023-04-03T22:32:50.122Z,4.86
2023-04-03T22:35:52.795Z,4.75
2023-04-03T22:38:55.253Z,4.62
2023-04-03T22:41:57.677Z,4.55
2023-04-03T22:45:00.166Z,4.61
2023-04-03T22:48:02.781Z,4.59
2023-04-03T22:51:08.625Z,4.61
2023-04-03T22:54:11.163Z,4.57
2023-04-03T22:57:13.787Z,4.54
2023-04-03T23:00:16.619Z,4.48
2023-04-03T23:03:19.338Z,4.35
2023-04-03T23:06:22.435Z,4.31
2023-04-03T23:09:24.905Z,4.12
2023-04-03T23:12:27.389Z,4.20
2023-04-03T23:15:29.795Z,4.18
2023-04-03T23:18:32.942Z,4.25
2023-04-03T23:21:35.708Z,4.19
2023-04-03T23:24:41.727Z,4.22
2023-04-03T23:27:53.741Z,4.24
2023-04-03T23:31:03.485Z,3.97
2023-04-03T23:34:06.428Z,3.88
2023-04-03T23:37:12.908Z,3.81
2023-04-03T23:40:15.730Z,3.90
2023-04-03T23:43:18.150Z,3.76
2023-04-03T23:46:20.770Z,3.76
2023-04-03T23:49:23.292Z,3.67
2023-04-03T23:52:26.084Z,3.69
2023-04-03T23:55:28.624Z,3.52
2023-04-03T23:58:31.639Z,3.63
